createdAt,value
2022-11-08T00:00:02.047Z,9.38
2022-11-08T00:02:31.330Z,9.52
2022-11-08T00:04:58.028Z,9.46
2022-11-08T00:07:43.408Z,9.35
2022-11-08T00:10:28.447Z,9.33
2022-11-08T00:13:15.088Z,9.25
2022-11-08T00:15:41.672Z,9.29
2022-11-08T00:18:08.353Z,9.20
2022-11-08T00:20:34.977Z,9.21
2022-11-08T00:23:02.096Z,9.18
2022-11-08T00:25:28.794Z,9.23
2022-11-08T00:27:55.517Z,9.17
2022-11-08T00:30:22.267Z,9.19
2022-11-08T00:32:48.977Z,9.11
2022-11-08T00:35:16.376Z,9.26
2022-11-08T00:37:43.242Z,9.13
2022-11-08T00:40:10.616Z,9.14
2022-11-08T00:42:37.220Z,9.11
2022-11-08T00:45:04.304Z,9.23
2022-11-08T00:47:31.084Z,9.20
2022-11-08T00:49:57.739Z,9.16
2022-11-08T00:52:24.391Z,9.12
2022-11-08T00:54:50.990Z,9.21
2022-11-08T00:57:17.603Z,9.20
2022-11-08T00:59:44.242Z,9.16
2022-11-08T01:02:10.914Z,9.26
2022-11-08T01:04:37.559Z,9.25
2022-11-08T01:07:04.194Z,9.26
2022-11-08T01:09:30.764Z,9.38
2022-11-08T01:11:57.478Z,9.32
2022-11-08T01:14:24.084Z,9.36
2022-11-08T01:16:50.754Z,9.46
2022-11-08T01:19:17.335Z,9.41
2022-11-08T01:21:44.101Z,9.39
2022-11-08T01:24:10.758Z,9.38
2022-11-08T01:26:37.357Z,9.49
2022-11-08T01:29:04.071Z,9.50
2022-11-08T01:31:32.370Z,9.57
2022-11-08T01:33:59.437Z,9.51
2022-11-08T01:36:27.710Z,9.48
2022-11-08T01:38:54.558Z,9.58
2022-11-08T01:41:23.576Z,9.60
2022-11-08T01:43:51.739Z,9.68
2022-11-08T01:46:18.293Z,9.62
2022-11-08T01:48:53.513Z,9.61
2022-11-08T01:51:23.462Z,9.67
2022-11-08T01:53:50.973Z,9.60
2022-11-08T01:56:17.933Z,9.67
2022-11-08T01:58:46.992Z,9.74
2022-11-08T02:01:13.634Z,9.78
2022-11-08T02:03:41.196Z,9.73
2022-11-08T02:06:08.164Z,9.77
2022-11-08T02:08:41.063Z,9.76
2022-11-08T02:11:08.876Z,9.75
2022-11-08T02:13:37.584Z,9.75
2022-11-08T02:16:09.668Z,9.73
2022-11-08T02:18:36.448Z,9.73
2022-11-08T02:21:02.926Z,9.80
2022-11-08T02:23:43.776Z,9.78
2022-11-08T02:26:10.529Z,9.80
2022-11-08T02:28:41.404Z,9.70
2022-11-08T02:31:09.649Z,9.72
2022-11-08T02:33:36.362Z,9.75
2022-11-08T02:36:03.644Z,9.84
2022-11-08T02:38:30.422Z,9.83
2022-11-08T02:40:57.444Z,9.73
2022-11-08T02:43:24.801Z,9.71
2022-11-08T02:45:52.314Z,9.73
2022-11-08T02:48:20.429Z,9.68
2022-11-08T02:50:47.466Z,9.71
2022-11-08T02:53:14.219Z,9.74
2022-11-08T02:55:40.920Z,9.69
2022-11-08T02:58:07.585Z,9.73
2022-11-08T03:00:34.767Z,9.70
2022-11-08T03:03:01.428Z,9.70
2022-11-08T03:05:28.668Z,9.76
2022-11-08T03:07:55.897Z,9.68
2022-11-08T03:10:24.390Z,9.78
2022-11-08T03:12:58.994Z,9.75
2022-11-08T03:15:25.676Z,9.88
2022-11-08T03:17:52.407Z,9.84
2022-11-08T03:20:19.392Z,9.90
2022-11-08T03:22:46.518Z,9.85
2022-11-08T03:25:13.559Z,9.87
2022-11-08T03:27:40.489Z,9.84
2022-11-08T03:30:07.696Z,9.91
2022-11-08T03:32:34.352Z,9.94
2022-11-08T03:35:04.662Z,9.99
2022-11-08T03:37:31.278Z,10.15
2022-11-08T03:39:57.963Z,10.12
2022-11-08T03:42:24.564Z,10.05
2022-11-08T03:44:51.136Z,10.07
2022-11-08T03:47:17.749Z,10.08
2022-11-08T03:49:44.373Z,10.11
2022-11-08T03:52:11.018Z,10.06
2022-11-08T03:54:37.681Z,10.02
2022-11-08T03:57:04.375Z,10.03
2022-11-08T03:59:31.051Z,10.11
2022-11-08T04:01:57.839Z,10.02
2022-11-08T04:04:24.511Z,10.16
2022-11-08T04:06:51.276Z,10.13
2022-11-08T04:09:21.484Z,10.09
2022-11-08T04:12:07.085Z,10.10
2022-11-08T04:14:52.226Z,10.09
2022-11-08T04:17:18.911Z,10.14
2022-11-08T04:20:04.283Z,10.18
2022-11-08T04:22:30.915Z,10.18
2022-11-08T04:24:57.508Z,10.21
2022-11-08T04:27:24.126Z,10.15
2022-11-08T04:29:50.766Z,10.13
2022-11-08T04:32:17.377Z,10.28
2022-11-08T04:34:43.981Z,10.16
2022-11-08T04:37:13.844Z,10.16
2022-11-08T04:39:40.462Z,10.20
2022-11-08T04:42:07.073Z,10.26
2022-11-08T04:44:33.730Z,10.26
2022-11-08T04:47:00.379Z,10.30
2022-11-08T04:49:27.198Z,10.21
2022-11-08T04:51:55.901Z,10.19
2022-11-08T04:54:22.596Z,10.19
2022-11-08T04:56:49.223Z,10.16
2022-11-08T04:59:16.187Z,10.11
2022-11-08T05:01:43.204Z,10.12
2022-11-08T05:04:10.212Z,10.16
2022-11-08T05:06:36.853Z,10.17
2022-11-08T05:09:03.610Z,10.14
2022-11-08T05:11:31.022Z,10.14
2022-11-08T05:13:57.957Z,10.15
2022-11-08T05:16:31.885Z,10.06
2022-11-08T05:18:58.908Z,10.03
2022-11-08T05:21:44.169Z,9.96
2022-11-08T05:24:13.080Z,9.83
2022-11-08T05:26:44.864Z,9.78
2022-11-08T05:29:12.447Z,9.72
2022-11-08T05:31:39.408Z,9.71
2022-11-08T05:34:07.357Z,9.64
2022-11-08T05:36:34.093Z,9.55
2022-11-08T05:39:00.946Z,9.48
2022-11-08T05:41:27.598Z,9.42
2022-11-08T05:43:55.147Z,9.39
2022-11-08T05:46:22.829Z,9.34
2022-11-08T05:48:50.388Z,9.37
2022-11-08T05:51:18.769Z,9.36
2022-11-08T05:53:47.094Z,9.30
2022-11-08T05:56:13.946Z,9.24
2022-11-08T05:58:40.524Z,9.21
2022-11-08T06:01:09.998Z,9.20
2022-11-08T06:03:37.269Z,9.16
2022-11-08T06:06:08.063Z,9.13
2022-11-08T06:08:35.518Z,9.03
2022-11-08T06:11:11.022Z,8.93
2022-11-08T06:13:37.687Z,8.89
2022-11-08T06:16:06.816Z,8.81
2022-11-08T06:18:34.337Z,8.78
2022-11-08T06:21:01.801Z,8.73
2022-11-08T06:23:28.582Z,8.74
2022-11-08T06:25:55.504Z,8.65
2022-11-08T06:28:22.205Z,8.57
2022-11-08T06:30:48.900Z,8.48
2022-11-08T06:33:15.959Z,8.42
2022-11-08T06:35:42.792Z,8.40
2022-11-08T06:38:10.388Z,8.38
2022-11-08T06:40:40.575Z,8.38
2022-11-08T06:43:07.195Z,8.30
2022-11-08T06:45:33.839Z,8.27
2022-11-08T06:48:02.294Z,8.25
2022-11-08T06:50:30.510Z,8.24
2022-11-08T06:53:02.028Z,8.22
2022-11-08T06:55:29.762Z,8.21
2022-11-08T06:57:56.645Z,8.24
2022-11-08T07:00:23.531Z,8.25
2022-11-08T07:02:54.490Z,8.26
2022-11-08T07:05:21.642Z,8.35
2022-11-08T07:07:54.726Z,8.32
2022-11-08T07:10:23.269Z,8.33
2022-11-08T07:12:58.704Z,8.37
2022-11-08T07:15:25.376Z,8.44
2022-11-08T07:17:52.069Z,8.44
2022-11-08T07:20:18.891Z,8.57
2022-11-08T07:22:45.552Z,8.58
2022-11-08T07:25:12.235Z,8.59
2022-11-08T07:27:38.854Z,8.58
2022-11-08T07:30:06.058Z,8.73
2022-11-08T07:32:32.949Z,8.66
2022-11-08T07:34:59.595Z,8.69
2022-11-08T07:37:26.226Z,8.75
2022-11-08T07:39:52.845Z,8.74
2022-11-08T07:42:19.486Z,8.78
2022-11-08T07:44:46.085Z,8.76
2022-11-08T07:47:12.702Z,8.79
2022-11-08T07:49:39.397Z,8.95
2022-11-08T07:52:14.789Z,9.05
2022-11-08T07:54:58.780Z,9.02
2022-11-08T07:57:29.317Z,9.13
2022-11-08T08:00:02.366Z,9.21
2022-11-08T08:02:33.511Z,9.28
2022-11-08T08:05:01.096Z,9.36
2022-11-08T08:08:00.304Z,9.35
2022-11-08T08:10:36.460Z,9.35
2022-11-08T08:13:03.462Z,9.46
2022-11-08T08:15:58.153Z,9.46
2022-11-08T08:18:28.943Z,9.42
2022-11-08T08:20:55.638Z,9.39
2022-11-08T08:23:22.261Z,9.61
2022-11-08T08:25:48.946Z,9.53
2022-11-08T08:28:15.552Z,9.67
2022-11-08T08:30:42.246Z,9.67
2022-11-08T08:33:27.784Z,9.74
2022-11-08T08:35:57.505Z,9.84
2022-11-08T08:38:24.172Z,9.82
2022-11-08T08:40:51.370Z,10.00
2022-11-08T08:43:18.547Z,10.01
2022-11-08T08:45:45.901Z,10.17
2022-11-08T08:48:12.537Z,10.27
2022-11-08T08:50:39.196Z,10.28
2022-11-08T08:53:06.131Z,10.41
2022-11-08T08:55:35.518Z,10.50
2022-11-08T08:58:02.167Z,10.66
2022-11-08T09:03:15.809Z,10.71
2022-11-08T09:05:44.130Z,10.97
2022-11-08T09:08:11.435Z,11.05
2022-11-08T09:10:38.198Z,11.12
2022-11-08T09:13:05.166Z,11.28
2022-11-08T09:15:31.843Z,11.20
2022-11-08T09:17:58.460Z,11.29
2022-11-08T09:20:25.516Z,11.40
2022-11-08T09:22:52.104Z,11.38
2022-11-08T09:25:18.834Z,11.46
2022-11-08T09:27:45.447Z,11.53
2022-11-08T09:30:12.126Z,11.67
2022-11-08T09:32:59.721Z,11.89
2022-11-08T09:35:25.565Z,12.07
2022-11-08T09:37:55.602Z,12.15
2022-11-08T09:40:46.179Z,12.22
2022-11-08T09:43:37.651Z,12.31
2022-11-08T09:46:04.469Z,12.40
2022-11-08T09:48:36.406Z,12.42
2022-11-08T09:51:10.309Z,12.48
2022-11-08T09:53:54.521Z,12.57
2022-11-08T09:56:36.007Z,12.72
2022-11-08T09:59:25.754Z,12.84
2022-11-08T10:01:52.495Z,12.96
2022-11-08T10:04:24.670Z,13.08
2022-11-08T10:07:07.382Z,13.25
2022-11-08T10:10:11.750Z,13.42
2022-11-08T10:12:47.725Z,13.57
2022-11-08T10:15:34.536Z,13.65
2022-11-08T10:18:20.292Z,13.62
2022-11-08T10:21:02.041Z,13.62
2022-11-08T10:23:41.143Z,13.66
2022-11-08T10:26:20.591Z,13.75
2022-11-08T10:29:01.763Z,13.84
2022-11-08T10:31:32.970Z,13.89
2022-11-08T10:34:00.905Z,13.92
2022-11-08T10:36:32.071Z,13.90
2022-11-08T10:39:14.040Z,13.98
2022-11-08T10:41:54.617Z,14.18
2022-11-08T10:44:24.299Z,14.19
2022-11-08T10:47:02.181Z,14.28
2022-11-08T10:49:33.945Z,14.39
2022-11-08T10:52:12.753Z,14.40
2022-11-08T10:54:48.480Z,14.36
2022-11-08T10:57:39.556Z,14.25
2022-11-08T11:00:15.212Z,14.21
2022-11-08T11:02:42.980Z,14.31
2022-11-08T11:05:31.398Z,14.42
2022-11-08T11:08:04.739Z,14.55
2022-11-08T11:10:33.058Z,14.75
2022-11-08T11:16:04.638Z,14.80
2022-11-08T11:18:53.153Z,14.92
2022-11-08T11:21:22.350Z,14.87
2022-11-08T11:23:54.023Z,14.91
2022-11-08T11:26:40.791Z,15.08
2022-11-08T11:29:16.856Z,15.03
2022-11-08T11:31:46.456Z,15.01
2022-11-08T11:34:18.993Z,15.05
2022-11-08T11:36:50.838Z,15.27
2022-11-08T11:39:37.479Z,15.37
2022-11-08T11:42:39.318Z,15.41
2022-11-08T11:45:09.124Z,15.48
2022-11-08T11:47:53.521Z,15.52
2022-11-08T11:50:32.430Z,15.60
2022-11-08T11:53:01.111Z,15.60
2022-11-08T11:55:47.785Z,15.57
2022-11-08T11:58:41.595Z,15.65
2022-11-08T12:01:20.868Z,15.75
2022-11-08T12:04:07.180Z,15.88
2022-11-08T12:06:51.297Z,15.93
2022-11-08T12:09:36.636Z,15.85
2022-11-08T12:12:12.808Z,15.83
2022-11-08T12:14:53.373Z,15.74
2022-11-08T12:17:35.050Z,15.77
2022-11-08T12:20:27.136Z,15.80
2022-11-08T12:22:56.926Z,15.86
2022-11-08T12:25:29.259Z,15.75
2022-11-08T12:28:13.803Z,15.68
2022-11-08T12:30:51.130Z,15.60
2022-11-08T12:33:43.060Z,15.45
2022-11-08T12:36:22.145Z,15.41
2022-11-08T12:38:56.822Z,15.38
2022-11-08T12:41:52.187Z,15.34
2022-11-08T12:44:52.205Z,15.26
2022-11-08T12:47:28.818Z,15.29
2022-11-08T12:50:13.379Z,15.37
2022-11-08T12:52:46.923Z,15.38
2022-11-08T12:55:37.611Z,15.40
2022-11-08T12:58:52.521Z,15.28
2022-11-08T13:01:21.370Z,15.37
2022-11-08T13:04:19.628Z,15.24
2022-11-08T13:06:51.727Z,15.18
2022-11-08T13:09:29.099Z,15.17
2022-11-08T13:12:25.116Z,15.23
2022-11-08T13:14:52.378Z,15.29
2022-11-08T13:17:22.653Z,15.33
2022-11-08T13:19:52.819Z,15.37
2022-11-08T13:22:29.758Z,15.33
2022-11-08T13:25:08.778Z,15.44
2022-11-08T13:27:38.314Z,15.39
2022-11-08T13:30:10.921Z,15.29
2022-11-08T13:32:43.673Z,15.23
2022-11-08T13:35:22.568Z,15.26
2022-11-08T13:37:58.296Z,15.32
2022-11-08T13:40:36.942Z,15.17
2022-11-08T13:43:23.364Z,15.05
2022-11-08T13:45:50.432Z,14.94
2022-11-08T13:48:37.444Z,14.80
2022-11-08T13:51:26.160Z,14.69
2022-11-08T13:53:58.172Z,14.71
2022-11-08T13:56:40.729Z,14.66
2022-11-08T13:59:29.204Z,14.62
2022-11-08T14:02:03.390Z,14.50
2022-11-08T14:04:30.887Z,14.47
2022-11-08T14:07:02.486Z,14.41
2022-11-08T14:10:03.106Z,14.47
2022-11-08T14:12:32.943Z,14.40
2022-11-08T14:15:10.398Z,14.48
2022-11-08T14:17:49.186Z,14.47
2022-11-08T14:20:23.303Z,14.38
2022-11-08T14:22:50.675Z,14.36
2022-11-08T14:25:31.502Z,14.40
2022-11-08T14:27:58.812Z,14.39
2022-11-08T14:30:26.157Z,14.44
2022-11-08T14:33:29.652Z,14.45
2022-11-08T14:36:07.369Z,14.39
2022-11-08T14:38:36.952Z,14.43
2022-11-08T14:41:06.772Z,14.38
2022-11-08T14:43:46.105Z,14.28
2022-11-08T14:46:18.606Z,14.22
2022-11-08T14:48:56.843Z,14.18
2022-11-08T14:51:25.129Z,14.05
2022-11-08T14:53:53.738Z,13.85
2022-11-08T14:56:25.661Z,13.77
2022-11-08T14:58:53.849Z,13.72
2022-11-08T15:01:26.160Z,13.61
2022-11-08T15:03:56.676Z,13.53
2022-11-08T15:06:39.518Z,13.35
2022-11-08T15:09:07.384Z,13.26
2022-11-08T15:11:40.021Z,13.20
2022-11-08T15:14:09.130Z,13.08
2022-11-08T15:16:47.249Z,13.06
2022-11-08T15:19:42.656Z,13.02
2022-11-08T15:22:40.258Z,12.99
2022-11-08T15:25:30.074Z,12.81
2022-11-08T15:27:58.566Z,12.74
2022-11-08T15:30:31.373Z,12.66
2022-11-08T15:32:58.286Z,12.59
2022-11-08T15:35:36.665Z,12.66
2022-11-08T15:38:39.619Z,12.60
2022-11-08T15:41:32.928Z,12.50
2022-11-08T15:44:22.357Z,12.57
2022-11-08T15:46:50.140Z,12.49
2022-11-08T15:49:19.280Z,12.36
2022-11-08T15:51:47.199Z,12.35
2022-11-08T15:54:14.016Z,12.39
2022-11-08T15:56:41.274Z,12.43
2022-11-08T15:59:16.261Z,12.50
2022-11-08T16:01:50.840Z,12.34
2022-11-08T16:04:17.552Z,12.46
2022-11-08T16:06:44.451Z,12.40
2022-11-08T16:09:11.200Z,12.47
2022-11-08T16:11:40.634Z,12.38
2022-11-08T16:14:10.390Z,12.51
2022-11-08T16:16:36.980Z,12.45
2022-11-08T16:19:03.609Z,12.34
2022-11-08T16:21:30.248Z,12.36
2022-11-08T16:23:56.884Z,12.36
2022-11-08T16:26:23.596Z,12.33
2022-11-08T16:28:50.293Z,12.42
2022-11-08T16:31:18.060Z,12.35
2022-11-08T16:33:45.924Z,12.32
2022-11-08T16:36:18.392Z,12.23
2022-11-08T16:38:53.156Z,12.21
2022-11-08T16:41:20.483Z,12.29
2022-11-08T16:43:47.174Z,12.40
2022-11-08T16:46:14.079Z,12.42
2022-11-08T16:48:46.280Z,12.32
2022-11-08T16:51:17.593Z,12.29
2022-11-08T16:53:44.246Z,12.23
2022-11-08T16:56:10.898Z,12.28
2022-11-08T16:58:37.700Z,12.23
2022-11-08T17:01:10.293Z,12.27
2022-11-08T17:03:37.517Z,12.21
2022-11-08T17:06:04.139Z,12.18
2022-11-08T17:08:30.727Z,12.20
2022-11-08T17:10:57.312Z,12.16
2022-11-08T17:13:23.906Z,12.16
2022-11-08T17:15:51.046Z,12.16
2022-11-08T17:18:20.740Z,12.26
2022-11-08T17:20:47.885Z,12.15
2022-11-08T17:23:16.436Z,12.18
2022-11-08T17:25:44.488Z,12.11
2022-11-08T17:28:12.443Z,12.07
2022-11-08T17:30:44.204Z,11.88
2022-11-08T17:33:12.736Z,11.93
2022-11-08T17:35:42.863Z,11.92
2022-11-08T17:38:11.059Z,11.88
2022-11-08T17:40:37.664Z,11.81
2022-11-08T17:43:04.429Z,11.77
2022-11-08T17:45:31.066Z,11.78
2022-11-08T17:47:57.702Z,11.77
2022-11-08T17:50:24.326Z,11.75
2022-11-08T17:52:53.533Z,11.73
2022-11-08T17:55:20.399Z,11.58
2022-11-08T17:57:47.010Z,11.69
2022-11-08T18:00:14.194Z,11.51
2022-11-08T18:02:40.802Z,11.42
2022-11-08T18:05:07.717Z,11.47
2022-11-08T18:07:34.682Z,11.57
2022-11-08T18:10:02.706Z,11.43
2022-11-08T18:12:31.262Z,11.33
2022-11-08T18:14:57.881Z,11.32
2022-11-08T18:17:24.549Z,11.25
2022-11-08T18:19:51.252Z,11.21
2022-11-08T18:22:17.831Z,11.12
2022-11-08T18:24:47.464Z,11.17
2022-11-08T18:27:16.618Z,11.07
2022-11-08T18:29:43.315Z,11.04
2022-11-08T18:32:09.995Z,11.16
2022-11-08T18:34:36.613Z,11.15
2022-11-08T18:37:03.187Z,11.09
2022-11-08T18:39:29.778Z,11.15
2022-11-08T18:41:56.357Z,11.08
2022-11-08T18:44:22.962Z,11.02
2022-11-08T18:46:49.561Z,11.00
2022-11-08T18:49:16.416Z,10.92
2022-11-08T18:51:43.016Z,11.01
2022-11-08T18:54:09.609Z,10.96
2022-11-08T18:56:36.311Z,10.91
2022-11-08T18:59:02.940Z,10.96
2022-11-08T19:01:29.698Z,10.95
2022-11-08T19:03:56.467Z,10.97
2022-11-08T19:06:23.081Z,10.95
2022-11-08T19:08:49.713Z,10.90
2022-11-08T19:11:20.475Z,10.93
2022-11-08T19:13:47.455Z,10.89
2022-11-08T19:16:16.478Z,10.78
2022-11-08T19:18:44.253Z,10.78
2022-11-08T19:21:14.255Z,10.75
2022-11-08T19:23:41.022Z,10.69
2022-11-08T19:26:11.001Z,10.67
2022-11-08T19:28:39.684Z,10.80
2022-11-08T19:31:06.934Z,10.68
2022-11-08T19:33:33.871Z,10.68
2022-11-08T19:36:05.542Z,10.61
2022-11-08T19:38:36.130Z,10.63
2022-11-08T19:41:07.052Z,10.67
2022-11-08T19:43:35.183Z,10.67
2022-11-08T19:46:03.678Z,10.63
2022-11-08T19:48:32.410Z,10.66
2022-11-08T19:51:04.128Z,10.51
2022-11-08T19:53:30.783Z,10.64
2022-11-08T19:56:01.960Z,10.49
2022-11-08T19:58:28.693Z,10.49
2022-11-08T20:00:56.177Z,10.47
2022-11-08T20:03:22.866Z,10.43
2022-11-08T20:05:53.648Z,10.57
2022-11-08T20:08:21.297Z,10.61
2022-11-08T20:10:52.132Z,10.53
2022-11-08T20:13:18.947Z,10.47
2022-11-08T20:15:48.494Z,10.38
2022-11-08T20:18:15.670Z,10.45
2022-11-08T20:20:43.529Z,10.47
2022-11-08T20:23:15.758Z,10.39
2022-11-08T20:25:42.735Z,10.43
2022-11-08T20:28:09.528Z,10.32
2022-11-08T20:30:36.250Z,10.35
2022-11-08T20:33:03.079Z,10.55
2022-11-08T20:35:31.985Z,10.50
2022-11-08T20:38:01.015Z,10.50
2022-11-08T20:40:27.665Z,10.53
2022-11-08T20:42:54.317Z,10.55
2022-11-08T20:45:20.935Z,10.61
2022-11-08T20:47:48.285Z,10.69
2022-11-08T20:50:15.610Z,10.76
2022-11-08T20:52:42.162Z,10.85
2022-11-08T20:55:08.982Z,10.82
2022-11-08T20:57:35.597Z,10.77
2022-11-08T21:00:13.127Z,10.79
2022-11-08T21:02:40.694Z,10.70
2022-11-08T21:05:07.622Z,10.71
2022-11-08T21:10:42.214Z,10.69
2022-11-08T21:13:07.968Z,10.77
2022-11-08T21:15:35.938Z,10.78
2022-11-08T21:18:02.618Z,10.94
2022-11-08T21:20:29.216Z,10.93
2022-11-08T21:22:55.788Z,11.08
2022-11-08T21:25:25.273Z,11.04
2022-11-08T21:27:51.917Z,10.94
2022-11-08T21:30:18.549Z,10.97
2022-11-08T21:32:45.376Z,10.93
2022-11-08T21:35:12.033Z,10.94
2022-11-08T21:37:38.660Z,11.01
2022-11-08T21:40:05.733Z,10.94
2022-11-08T21:42:38.030Z,10.93
2022-11-08T21:45:06.684Z,11.02
2022-11-08T21:47:33.635Z,11.06
2022-11-08T21:50:00.335Z,10.98
2022-11-08T21:52:27.262Z,10.98
2022-11-08T21:54:54.593Z,11.02
2022-11-08T21:57:21.284Z,11.08
2022-11-08T21:59:47.966Z,11.12
2022-11-08T22:02:15.520Z,11.05
2022-11-08T22:04:42.582Z,11.02
2022-11-08T22:07:09.316Z,10.95
2022-11-08T22:09:36.387Z,10.99
2022-11-08T22:12:03.292Z,11.00
2022-11-08T22:14:31.511Z,10.98
2022-11-08T22:16:58.104Z,10.93
2022-11-08T22:19:24.797Z,11.02
2022-11-08T22:21:51.413Z,11.08
2022-11-08T22:24:20.578Z,11.15
2022-11-08T22:26:49.047Z,10.99
2022-11-08T22:29:16.125Z,10.98
2022-11-08T22:31:43.264Z,10.97
2022-11-08T22:34:10.263Z,10.99
2022-11-08T22:36:43.983Z,11.18
2022-11-08T22:39:13.025Z,11.11
2022-11-08T22:41:42.500Z,11.14
2022-11-08T22:44:12.320Z,11.03
2022-11-08T22:46:40.251Z,11.05
2022-11-08T22:49:07.016Z,10.98
2022-11-08T22:51:33.855Z,10.95
2022-11-08T22:54:00.581Z,10.98
2022-11-08T22:56:27.537Z,10.95
2022-11-08T22:58:54.242Z,10.92
2022-11-08T23:01:20.929Z,10.92
2022-11-08T23:03:48.164Z,10.89
2022-11-08T23:06:15.878Z,10.99
2022-11-08T23:08:43.011Z,10.93
2022-11-08T23:11:28.354Z,10.89
2022-11-08T23:14:13.683Z,10.88
2022-11-08T23:16:43.077Z,10.89
2022-11-08T23:19:36.914Z,10.89
2022-11-08T23:22:24.318Z,10.87
2022-11-08T23:24:51.038Z,10.87
2022-11-08T23:27:37.802Z,10.99
2022-11-08T23:30:25.078Z,10.95
2022-11-08T23:32:52.479Z,10.96
2022-11-08T23:35:20.436Z,10.89
2022-11-08T23:37:47.108Z,10.92
2022-11-08T23:40:36.769Z,10.95
2022-11-08T23:43:25.534Z,10.95
2022-11-08T23:45:52.543Z,10.93
2022-11-08T23:48:19.296Z,10.94
2022-11-08T23:50:50.864Z,10.92
2022-11-08T23:53:18.914Z,10.92
2022-11-08T23:55:45.857Z,11.05
2022-11-08T23:58:14.211Z,10.97
